createdAt,value
2022-07-31T00:00:31.879Z,1014.18
2022-07-31T00:01:31.845Z,1014.14
2022-07-31T00:02:31.822Z,1014.12
2022-07-31T00:03:31.875Z,1014.10
2022-07-31T00:04:31.789Z,1014.10
2022-07-31T00:05:31.795Z,1014.12
2022-07-31T00:06:31.760Z,1014.10
2022-07-31T00:07:31.742Z,1014.12
2022-07-31T00:08:31.734Z,1014.15
2022-07-31T00:09:52.449Z,1014.09
2022-07-31T00:10:31.711Z,1014.12
2022-07-31T00:11:31.675Z,1014.11
2022-07-31T00:12:31.665Z,1014.12
2022-07-31T00:13:58.194Z,1014.08
2022-07-31T00:14:31.634Z,1014.09
2022-07-31T00:15:31.630Z,1014.11
2022-07-31T00:16:31.617Z,1014.05
2022-07-31T00:17:31.581Z,1014.05
2022-07-31T00:18:31.573Z,1014.07
2022-07-31T00:19:31.565Z,1014.04
2022-07-31T00:20:31.567Z,1014.04
2022-07-31T00:21:31.533Z,1014.04
2022-07-31T00:22:31.505Z,1014.06
2022-07-31T00:23:31.500Z,1014.06
2022-07-31T00:24:31.495Z,1014.04
2022-07-31T00:25:31.456Z,1014.01
2022-07-31T00:26:31.438Z,1013.98
2022-07-31T00:27:31.434Z,1013.97
2022-07-31T00:28:31.407Z,1013.95
2022-07-31T00:29:31.389Z,1013.97
2022-07-31T00:30:31.392Z,1013.92
2022-07-31T00:31:31.355Z,1013.95
2022-07-31T00:32:31.343Z,1013.93
2022-07-31T00:33:31.342Z,1013.90
2022-07-31T00:34:31.318Z,1013.89
2022-07-31T00:35:31.293Z,1013.85
2022-07-31T00:36:31.284Z,1013.89
2022-07-31T00:37:31.283Z,1013.89
2022-07-31T00:38:31.268Z,1013.84
2022-07-31T00:39:31.228Z,1013.83
2022-07-31T00:40:31.232Z,1013.83
2022-07-31T00:41:31.216Z,1013.84
2022-07-31T00:42:31.186Z,1013.85
2022-07-31T00:43:31.167Z,1013.81
2022-07-31T00:44:31.502Z,1013.84
2022-07-31T00:45:31.776Z,1013.82
2022-07-31T00:46:31.115Z,1013.80
2022-07-31T00:47:31.104Z,1013.81
2022-07-31T00:48:31.087Z,1013.81
2022-07-31T00:49:37.282Z,1013.82
2022-07-31T00:50:31.068Z,1013.80
2022-07-31T00:51:31.034Z,1013.84
2022-07-31T00:52:31.018Z,1013.80
2022-07-31T00:53:31.022Z,1013.78
2022-07-31T00:54:30.984Z,1013.80
2022-07-31T00:55:30.974Z,1013.80
2022-07-31T00:56:30.971Z,1013.78
2022-07-31T00:57:30.947Z,1013.76
2022-07-31T00:58:30.923Z,1013.77
2022-07-31T00:59:30.907Z,1013.77
2022-07-31T01:00:30.890Z,1013.76
2022-07-31T01:01:31.013Z,1013.77
2022-07-31T01:02:30.860Z,1013.77
2022-07-31T01:03:30.860Z,1013.77
2022-07-31T01:04:31.150Z,1013.74
2022-07-31T01:05:30.809Z,1013.75
2022-07-31T01:06:30.794Z,1013.74
2022-07-31T01:07:30.796Z,1013.71
2022-07-31T01:08:30.761Z,1013.72
2022-07-31T01:09:30.743Z,1013.69
2022-07-31T01:10:30.723Z,1013.70
2022-07-31T01:11:30.710Z,1013.70
2022-07-31T01:12:30.715Z,1013.72
2022-07-31T01:13:30.694Z,1013.69
2022-07-31T01:14:30.665Z,1013.71
2022-07-31T01:15:30.644Z,1013.67
2022-07-31T01:16:30.638Z,1013.66
2022-07-31T01:17:30.614Z,1013.66
2022-07-31T01:18:30.625Z,1013.64
2022-07-31T01:19:37.956Z,1013.64
2022-07-31T01:20:30.567Z,1013.64
2022-07-31T01:21:30.551Z,1013.64
2022-07-31T01:22:33.140Z,1013.62
2022-07-31T01:23:30.533Z,1013.61
2022-07-31T01:24:30.502Z,1013.60
2022-07-31T01:25:30.507Z,1013.58
2022-07-31T01:26:30.469Z,1013.57
2022-07-31T01:27:30.452Z,1013.58
2022-07-31T01:28:30.465Z,1013.57
2022-07-31T01:29:30.419Z,1013.58
2022-07-31T01:30:30.994Z,1013.56
2022-07-31T01:31:30.403Z,1013.53
2022-07-31T01:32:30.372Z,1013.54
2022-07-31T01:33:30.356Z,1013.54
2022-07-31T01:34:30.362Z,1013.55
2022-07-31T01:35:30.326Z,1013.58
2022-07-31T01:36:30.307Z,1013.57
2022-07-31T01:37:30.292Z,1013.62
2022-07-31T01:38:30.293Z,1013.58
2022-07-31T01:39:34.001Z,1013.58
2022-07-31T01:40:30.266Z,1013.58
2022-07-31T01:41:30.232Z,1013.60
2022-07-31T01:42:30.207Z,1013.57
2022-07-31T01:43:30.194Z,1013.57
2022-07-31T01:44:30.193Z,1013.63
2022-07-31T01:45:30.161Z,1013.60
2022-07-31T01:46:30.142Z,1013.63
2022-07-31T01:47:30.141Z,1013.59
2022-07-31T01:48:30.141Z,1013.58
2022-07-31T01:49:30.184Z,1013.60
2022-07-31T01:50:43.705Z,1013.56
2022-07-31T01:51:30.066Z,1013.56
2022-07-31T01:52:30.051Z,1013.54
2022-07-31T01:53:30.034Z,1013.52
2022-07-31T01:54:30.012Z,1013.52
2022-07-31T01:55:30.000Z,1013.50
2022-07-31T01:56:29.998Z,1013.50
2022-07-31T01:57:29.969Z,1013.49
2022-07-31T01:58:29.952Z,1013.50
2022-07-31T01:59:29.937Z,1013.51
2022-07-31T02:00:34.542Z,1013.48
2022-07-31T02:01:29.989Z,1013.45
2022-07-31T02:02:29.883Z,1013.46
2022-07-31T02:03:44.163Z,1013.43
2022-07-31T02:04:29.857Z,1013.48
2022-07-31T02:05:29.846Z,1013.50
2022-07-31T02:06:29.837Z,1013.47
2022-07-31T02:07:29.819Z,1013.48
2022-07-31T02:08:29.794Z,1013.46
2022-07-31T02:09:29.772Z,1013.44
2022-07-31T02:10:29.758Z,1013.43
2022-07-31T02:11:29.757Z,1013.45
2022-07-31T02:12:32.184Z,1013.41
2022-07-31T02:13:29.729Z,1013.42
2022-07-31T02:14:29.714Z,1013.42
2022-07-31T02:15:29.675Z,1013.46
2022-07-31T02:16:29.684Z,1013.46
2022-07-31T02:17:29.638Z,1013.46
2022-07-31T02:18:29.630Z,1013.47
2022-07-31T02:19:31.130Z,1013.43
2022-07-31T02:20:29.595Z,1013.45
2022-07-31T02:21:29.577Z,1013.42
2022-07-31T02:22:29.596Z,1013.43
2022-07-31T02:23:29.544Z,1013.40
2022-07-31T02:24:29.562Z,1013.37
2022-07-31T02:25:29.511Z,1013.37
2022-07-31T02:26:29.507Z,1013.36
2022-07-31T02:27:54.310Z,1013.39
2022-07-31T02:28:29.461Z,1013.39
2022-07-31T02:29:29.445Z,1013.38
2022-07-31T02:30:38.969Z,1013.39
2022-07-31T02:31:29.945Z,1013.37
2022-07-31T02:32:29.399Z,1013.35
2022-07-31T02:33:30.463Z,1013.36
2022-07-31T02:34:30.145Z,1013.39
2022-07-31T02:35:29.344Z,1013.38
2022-07-31T02:36:29.333Z,1013.37
2022-07-31T02:37:29.333Z,1013.36
2022-07-31T02:38:29.300Z,1013.39
2022-07-31T02:39:30.768Z,1013.35
2022-07-31T02:40:29.262Z,1013.40
2022-07-31T02:41:29.252Z,1013.38
2022-07-31T02:42:29.229Z,1013.40
2022-07-31T02:43:29.237Z,1013.38
2022-07-31T02:44:29.946Z,1013.37
2022-07-31T02:45:29.184Z,1013.42
2022-07-31T02:46:29.185Z,1013.41
2022-07-31T02:47:29.150Z,1013.40
2022-07-31T02:48:29.132Z,1013.40
2022-07-31T02:49:29.183Z,1013.39
2022-07-31T02:50:29.120Z,1013.41
2022-07-31T02:51:29.085Z,1013.38
2022-07-31T02:52:29.089Z,1013.39
2022-07-31T02:53:29.056Z,1013.41
2022-07-31T02:54:29.043Z,1013.37
2022-07-31T02:55:29.027Z,1013.38
2022-07-31T02:56:29.004Z,1013.39
2022-07-31T02:57:29.006Z,1013.39
2022-07-31T02:58:28.970Z,1013.39
2022-07-31T02:59:28.957Z,1013.39
2022-07-31T03:00:28.991Z,1013.40
2022-07-31T03:01:28.917Z,1013.36
2022-07-31T03:02:37.788Z,1013.35
2022-07-31T03:03:28.883Z,1013.36
2022-07-31T03:04:28.894Z,1013.33
2022-07-31T03:05:28.873Z,1013.32
2022-07-31T03:06:28.834Z,1013.32
2022-07-31T03:07:28.841Z,1013.33
2022-07-31T03:08:28.802Z,1013.34
2022-07-31T03:09:28.782Z,1013.29
2022-07-31T03:10:28.769Z,1013.33
2022-07-31T03:11:28.752Z,1013.33
2022-07-31T03:12:28.747Z,1013.34
2022-07-31T03:13:28.739Z,1013.34
2022-07-31T03:14:30.965Z,1013.34
2022-07-31T03:15:28.682Z,1013.34
2022-07-31T03:16:28.668Z,1013.37
2022-07-31T03:17:38.096Z,1013.32
2022-07-31T03:18:28.651Z,1013.34
2022-07-31T03:19:28.617Z,1013.31
2022-07-31T03:20:28.613Z,1013.32
2022-07-31T03:21:28.587Z,1013.33
2022-07-31T03:22:28.569Z,1013.30
2022-07-31T03:23:28.570Z,1013.27
2022-07-31T03:24:28.538Z,1013.27
2022-07-31T03:25:28.518Z,1013.30
2022-07-31T03:26:28.500Z,1013.31
2022-07-31T03:27:28.516Z,1013.31
2022-07-31T03:28:28.486Z,1013.32
2022-07-31T03:29:39.207Z,1013.34
2022-07-31T03:30:28.439Z,1013.33
2022-07-31T03:31:28.413Z,1013.34
2022-07-31T03:32:28.423Z,1013.36
2022-07-31T03:33:28.402Z,1013.34
2022-07-31T03:34:28.423Z,1013.35
2022-07-31T03:35:28.361Z,1013.34
2022-07-31T03:36:28.331Z,1013.30
2022-07-31T03:37:28.315Z,1013.36
2022-07-31T03:38:38.264Z,1013.37
2022-07-31T03:39:28.277Z,1013.33
2022-07-31T03:40:28.287Z,1013.37
2022-07-31T03:41:28.247Z,1013.38
2022-07-31T03:42:28.243Z,1013.36
2022-07-31T03:43:28.218Z,1013.39
2022-07-31T03:44:28.206Z,1013.36
2022-07-31T03:45:28.209Z,1013.37
2022-07-31T03:46:28.162Z,1013.34
2022-07-31T03:47:28.148Z,1013.35
2022-07-31T03:48:28.152Z,1013.38
2022-07-31T03:49:28.269Z,1013.38
2022-07-31T03:50:28.117Z,1013.39
2022-07-31T03:51:28.083Z,1013.36
2022-07-31T03:52:28.086Z,1013.35
2022-07-31T03:53:28.068Z,1013.40
2022-07-31T03:54:28.029Z,1013.36
2022-07-31T03:55:28.014Z,1013.34
2022-07-31T03:56:27.999Z,1013.32
2022-07-31T03:57:31.101Z,1013.29
2022-07-31T03:58:27.988Z,1013.27
2022-07-31T03:59:27.949Z,1013.32
2022-07-31T04:00:27.936Z,1013.33
2022-07-31T04:01:27.950Z,1013.34
2022-07-31T04:02:27.966Z,1013.39
2022-07-31T04:03:27.881Z,1013.39
2022-07-31T04:04:27.868Z,1013.40
2022-07-31T04:05:27.870Z,1013.40
2022-07-31T04:06:27.829Z,1013.40
2022-07-31T04:07:27.821Z,1013.35
2022-07-31T04:08:27.798Z,1013.37
2022-07-31T04:09:27.829Z,1013.37
2022-07-31T04:10:27.765Z,1013.40
2022-07-31T04:11:27.770Z,1013.38
2022-07-31T04:12:27.733Z,1013.38
2022-07-31T04:13:27.734Z,1013.36
2022-07-31T04:14:27.697Z,1013.34
2022-07-31T04:15:27.682Z,1013.35
2022-07-31T04:16:27.696Z,1013.36
2022-07-31T04:17:27.650Z,1013.36
2022-07-31T04:18:27.627Z,1013.33
2022-07-31T04:19:27.636Z,1013.31
2022-07-31T04:20:27.596Z,1013.33
2022-07-31T04:21:27.597Z,1013.33
2022-07-31T04:22:27.559Z,1013.35
2022-07-31T04:23:32.414Z,1013.36
2022-07-31T04:24:27.529Z,1013.38
2022-07-31T04:25:27.515Z,1013.43
2022-07-31T04:26:27.496Z,1013.39
2022-07-31T04:27:27.476Z,1013.43
2022-07-31T04:28:27.459Z,1013.43
2022-07-31T04:29:27.466Z,1013.43
2022-07-31T04:30:27.450Z,1013.44
2022-07-31T04:31:27.414Z,1013.49
2022-07-31T04:32:27.394Z,1013.53
2022-07-31T04:33:27.383Z,1013.49
2022-07-31T04:34:27.370Z,1013.50
2022-07-31T04:35:27.361Z,1013.47
2022-07-31T04:36:29.559Z,1013.48
2022-07-31T04:37:27.308Z,1013.51
2022-07-31T04:38:27.289Z,1013.47
2022-07-31T04:39:27.291Z,1013.50
2022-07-31T04:40:27.279Z,1013.48
2022-07-31T04:41:27.245Z,1013.45
2022-07-31T04:42:27.242Z,1013.48
2022-07-31T04:43:27.209Z,1013.45
2022-07-31T04:44:27.195Z,1013.43
2022-07-31T04:45:27.218Z,1013.43
2022-07-31T04:46:27.161Z,1013.44
2022-07-31T04:47:27.143Z,1013.42
2022-07-31T04:48:27.129Z,1013.45
2022-07-31T04:49:27.166Z,1013.39
2022-07-31T04:50:27.108Z,1013.43
2022-07-31T04:51:27.088Z,1013.45
2022-07-31T04:52:27.056Z,1013.44
2022-07-31T04:53:27.056Z,1013.46
2022-07-31T04:54:27.024Z,1013.47
2022-07-31T04:55:27.015Z,1013.46
2022-07-31T04:56:26.993Z,1013.46
2022-07-31T04:57:26.977Z,1013.46
2022-07-31T04:58:26.984Z,1013.47
2022-07-31T04:59:59.119Z,1013.46
2022-07-31T05:00:26.925Z,1013.48
2022-07-31T05:01:26.971Z,1013.47
2022-07-31T05:02:26.888Z,1013.52
2022-07-31T05:03:26.870Z,1013.52
2022-07-31T05:04:26.875Z,1013.51
2022-07-31T05:05:26.836Z,1013.54
2022-07-31T05:06:26.824Z,1013.54
2022-07-31T05:07:29.019Z,1013.53
2022-07-31T05:08:26.805Z,1013.54
2022-07-31T05:09:26.790Z,1013.52
2022-07-31T05:10:26.752Z,1013.54
2022-07-31T05:11:26.742Z,1013.53
2022-07-31T05:12:26.725Z,1013.52
2022-07-31T05:13:26.724Z,1013.55
2022-07-31T05:14:27.261Z,1013.52
2022-07-31T05:15:26.693Z,1013.54
2022-07-31T05:16:26.649Z,1013.50
2022-07-31T05:17:26.653Z,1013.50
2022-07-31T05:18:26.619Z,1013.52
2022-07-31T05:19:26.603Z,1013.47
2022-07-31T05:20:26.584Z,1013.45
2022-07-31T05:21:26.604Z,1013.47
2022-07-31T05:22:26.551Z,1013.50
2022-07-31T05:23:26.542Z,1013.49
2022-07-31T05:24:33.467Z,1013.52
2022-07-31T05:25:26.502Z,1013.51
2022-07-31T05:26:26.497Z,1013.53
2022-07-31T05:27:26.485Z,1013.51
2022-07-31T05:28:29.935Z,1013.56
2022-07-31T05:29:26.437Z,1013.55
2022-07-31T05:30:30.155Z,1013.52
2022-07-31T05:31:26.399Z,1013.54
2022-07-31T05:32:26.401Z,1013.46
2022-07-31T05:33:26.370Z,1013.49
2022-07-31T05:34:26.361Z,1013.53
2022-07-31T05:35:26.336Z,1013.51
2022-07-31T05:36:26.337Z,1013.51
2022-07-31T05:37:26.301Z,1013.55
2022-07-31T05:38:26.307Z,1013.48
2022-07-31T05:39:26.268Z,1013.47
2022-07-31T05:40:26.264Z,1013.49
2022-07-31T05:41:26.236Z,1013.42
2022-07-31T05:42:26.236Z,1013.46
2022-07-31T05:43:26.196Z,1013.45
2022-07-31T05:44:26.217Z,1013.44
2022-07-31T05:45:26.157Z,1013.45
2022-07-31T05:46:26.146Z,1013.46
2022-07-31T05:47:26.132Z,1013.43
2022-07-31T05:48:26.114Z,1013.42
2022-07-31T05:49:26.145Z,1013.46
2022-07-31T05:50:26.102Z,1013.45
2022-07-31T05:51:26.065Z,1013.47
2022-07-31T05:52:26.052Z,1013.44
2022-07-31T05:53:26.029Z,1013.47
2022-07-31T05:54:26.022Z,1013.49
2022-07-31T05:55:26.015Z,1013.51
2022-07-31T05:56:25.981Z,1013.55
2022-07-31T05:57:32.902Z,1013.51
2022-07-31T05:58:25.953Z,1013.48
2022-07-31T05:59:25.952Z,1013.50
2022-07-31T06:00:25.913Z,1013.51
2022-07-31T06:01:25.946Z,1013.54
2022-07-31T06:02:25.880Z,1013.54
2022-07-31T06:05:19.454Z,1013.46
2022-07-31T06:06:19.473Z,1013.46
2022-07-31T06:07:19.402Z,1013.47
2022-07-31T06:08:19.380Z,1013.46
2022-07-31T06:09:19.367Z,1013.43
2022-07-31T06:10:19.365Z,1013.49
2022-07-31T06:11:19.336Z,1013.47
2022-07-31T06:12:19.341Z,1013.44
2022-07-31T06:13:19.302Z,1013.46
2022-07-31T06:14:19.297Z,1013.49
2022-07-31T06:15:19.263Z,1013.47
2022-07-31T06:16:19.272Z,1013.54
2022-07-31T06:17:19.254Z,1013.55
2022-07-31T06:18:19.233Z,1013.55
2022-07-31T06:19:19.212Z,1013.52
2022-07-31T06:20:19.211Z,1013.52
2022-07-31T06:21:40.172Z,1013.51
2022-07-31T06:22:19.170Z,1013.54
2022-07-31T06:23:22.906Z,1013.50
2022-07-31T06:24:19.119Z,1013.48
2022-07-31T06:25:19.102Z,1013.44
2022-07-31T06:26:19.090Z,1013.46
2022-07-31T06:27:22.667Z,1013.42
2022-07-31T06:28:19.051Z,1013.38
2022-07-31T06:29:19.059Z,1013.42
2022-07-31T06:30:19.056Z,1013.42
2022-07-31T06:31:19.004Z,1013.39
2022-07-31T06:32:18.984Z,1013.40
2022-07-31T06:33:36.632Z,1013.43
2022-07-31T06:34:20.090Z,1013.41
2022-07-31T06:35:18.940Z,1013.42
2022-07-31T06:36:18.953Z,1013.35
2022-07-31T06:37:18.911Z,1013.38
2022-07-31T06:38:18.884Z,1013.37
2022-07-31T06:39:18.871Z,1013.39
2022-07-31T06:40:18.863Z,1013.41
2022-07-31T06:41:18.836Z,1013.46
2022-07-31T06:42:18.833Z,1013.49
2022-07-31T06:43:18.799Z,1013.52
2022-07-31T06:44:18.786Z,1013.55
2022-07-31T06:45:41.614Z,1013.60
2022-07-31T06:46:18.778Z,1013.56
2022-07-31T06:47:18.756Z,1013.58
2022-07-31T06:48:18.721Z,1013.60
2022-07-31T06:49:18.794Z,1013.62
2022-07-31T06:50:18.705Z,1013.60
2022-07-31T06:51:32.970Z,1013.61
2022-07-31T06:52:18.680Z,1013.58
2022-07-31T06:53:18.641Z,1013.61
2022-07-31T06:54:18.634Z,1013.65
2022-07-31T06:55:18.599Z,1013.62
2022-07-31T06:56:18.625Z,1013.67
2022-07-31T06:57:18.623Z,1013.66
2022-07-31T06:58:18.552Z,1013.66
2022-07-31T06:59:40.213Z,1013.67
2022-07-31T07:00:20.314Z,1013.62
2022-07-31T07:01:18.559Z,1013.61
2022-07-31T07:02:18.504Z,1013.59
2022-07-31T07:03:18.486Z,1013.52
2022-07-31T07:04:18.451Z,1013.55
2022-07-31T07:05:18.436Z,1013.55
2022-07-31T07:06:18.439Z,1013.55
2022-07-31T07:07:18.406Z,1013.57
2022-07-31T07:08:18.403Z,1013.61
2022-07-31T07:09:18.371Z,1013.59
2022-07-31T07:10:18.355Z,1013.58
2022-07-31T07:11:18.335Z,1013.60
2022-07-31T07:12:18.320Z,1013.62
2022-07-31T07:13:18.323Z,1013.63
2022-07-31T07:14:18.289Z,1013.62
2022-07-31T07:15:18.276Z,1013.63
2022-07-31T07:16:18.266Z,1013.61
2022-07-31T07:17:18.240Z,1013.64
2022-07-31T07:18:18.219Z,1013.60
2022-07-31T07:19:18.228Z,1013.56
2022-07-31T07:20:18.232Z,1013.58
2022-07-31T07:21:18.183Z,1013.54
2022-07-31T07:22:18.157Z,1013.52
2022-07-31T07:23:18.141Z,1013.52
2022-07-31T07:24:18.119Z,1013.51
2022-07-31T07:25:18.155Z,1013.45
2022-07-31T07:26:18.085Z,1013.47
2022-07-31T07:27:18.093Z,1013.46
2022-07-31T07:28:30.700Z,1013.49
2022-07-31T07:29:18.040Z,1013.50
2022-07-31T07:30:18.025Z,1013.47
2022-07-31T07:31:18.019Z,1013.46
2022-07-31T07:32:17.983Z,1013.49
2022-07-31T07:33:40.630Z,1013.51
2022-07-31T07:34:17.953Z,1013.46
2022-07-31T07:35:17.937Z,1013.48
2022-07-31T07:36:23.499Z,1013.46
2022-07-31T07:37:17.908Z,1013.46
2022-07-31T07:38:17.885Z,1013.50
2022-07-31T07:39:17.876Z,1013.46
2022-07-31T07:40:17.854Z,1013.45
2022-07-31T07:41:18.523Z,1013.44
2022-07-31T07:42:17.843Z,1013.39
2022-07-31T07:43:17.805Z,1013.44
2022-07-31T07:44:17.788Z,1013.40
2022-07-31T07:45:17.771Z,1013.42
2022-07-31T07:46:17.756Z,1013.36
2022-07-31T07:47:17.886Z,1013.33
2022-07-31T07:48:17.753Z,1013.35
2022-07-31T07:49:17.878Z,1013.39
2022-07-31T07:50:17.710Z,1013.36
2022-07-31T07:51:17.676Z,1013.39
2022-07-31T07:52:17.675Z,1013.36
2022-07-31T07:53:17.640Z,1013.35
2022-07-31T07:54:17.621Z,1013.32
2022-07-31T07:55:17.601Z,1013.30
2022-07-31T07:56:17.603Z,1013.31
2022-07-31T07:57:17.574Z,1013.28
2022-07-31T07:58:17.584Z,1013.30
2022-07-31T07:59:17.547Z,1013.33
2022-07-31T08:00:17.529Z,1013.31
2022-07-31T08:01:17.583Z,1013.29
2022-07-31T08:02:17.491Z,1013.28
2022-07-31T08:03:48.310Z,1013.28
2022-07-31T08:04:17.452Z,1013.24
2022-07-31T08:05:17.442Z,1013.24
2022-07-31T08:06:17.423Z,1013.23
2022-07-31T08:07:17.418Z,1013.27
2022-07-31T08:08:17.416Z,1013.25
2022-07-31T08:09:17.376Z,1013.25
2022-07-31T08:10:17.359Z,1013.22
2022-07-31T08:11:17.990Z,1013.23
2022-07-31T08:12:17.331Z,1013.20
2022-07-31T08:13:17.373Z,1013.18
2022-07-31T08:14:17.293Z,1013.15
2022-07-31T08:15:17.276Z,1013.16
2022-07-31T08:16:17.269Z,1013.17
2022-07-31T08:17:17.245Z,1013.16
2022-07-31T08:18:17.240Z,1013.20
2022-07-31T08:19:17.231Z,1013.18
2022-07-31T08:20:17.193Z,1013.20
2022-07-31T08:21:17.181Z,1013.22
2022-07-31T08:22:17.161Z,1013.22
2022-07-31T08:23:18.279Z,1013.26
2022-07-31T08:24:17.150Z,1013.24
2022-07-31T08:25:17.117Z,1013.24
2022-07-31T08:26:17.099Z,1013.29
2022-07-31T08:27:17.084Z,1013.22
2022-07-31T08:28:19.537Z,1013.23
2022-07-31T08:29:17.054Z,1013.24
2022-07-31T08:30:17.058Z,1013.24
2022-07-31T08:31:17.025Z,1013.27
2022-07-31T08:32:17.003Z,1013.26
2022-07-31T08:33:16.981Z,1013.24
2022-07-31T08:34:31.385Z,1013.28
2022-07-31T08:35:16.979Z,1013.28
2022-07-31T08:36:16.939Z,1013.31
2022-07-31T08:37:50.954Z,1013.29
2022-07-31T08:38:16.904Z,1013.30
2022-07-31T08:39:17.569Z,1013.29
2022-07-31T08:40:16.906Z,1013.30
2022-07-31T08:41:16.873Z,1013.29
2022-07-31T08:42:16.859Z,1013.28
2022-07-31T08:44:03.355Z,1013.27
2022-07-31T08:44:16.809Z,1013.29
2022-07-31T08:45:16.795Z,1013.26
2022-07-31T08:46:16.802Z,1013.31
2022-07-31T08:47:16.760Z,1013.26
2022-07-31T08:48:16.745Z,1013.27
2022-07-31T08:49:16.758Z,1013.25
2022-07-31T08:50:16.717Z,1013.25
2022-07-31T08:51:16.718Z,1013.23
2022-07-31T08:52:16.684Z,1013.25
2022-07-31T08:53:16.678Z,1013.25
2022-07-31T08:54:16.669Z,1013.29
2022-07-31T08:55:54.974Z,1013.31
2022-07-31T08:56:16.621Z,1013.32
2022-07-31T08:57:16.605Z,1013.28
2022-07-31T08:58:16.587Z,1013.29
2022-07-31T08:59:16.592Z,1013.28
2022-07-31T09:00:16.619Z,1013.31
2022-07-31T09:01:16.611Z,1013.26
2022-07-31T09:02:16.527Z,1013.29
2022-07-31T09:03:16.512Z,1013.30
2022-07-31T09:04:16.492Z,1013.29
2022-07-31T09:05:16.501Z,1013.25
2022-07-31T09:06:16.467Z,1013.28
2022-07-31T09:07:16.453Z,1013.25
2022-07-31T09:08:16.432Z,1013.22
2022-07-31T09:09:16.415Z,1013.21
2022-07-31T09:10:16.417Z,1013.17
2022-07-31T09:11:16.407Z,1013.19
2022-07-31T09:12:16.390Z,1013.17
2022-07-31T09:13:16.368Z,1013.19
2022-07-31T09:14:16.347Z,1013.18
2022-07-31T09:15:16.339Z,1013.17
2022-07-31T09:16:16.348Z,1013.15
2022-07-31T09:17:16.300Z,1013.11
2022-07-31T09:18:16.310Z,1013.09
2022-07-31T09:19:51.089Z,1013.07
2022-07-31T09:20:16.270Z,1013.07
2022-07-31T09:21:16.238Z,1013.10
2022-07-31T09:22:16.222Z,1013.11
2022-07-31T09:23:16.223Z,1013.09
2022-07-31T09:24:16.209Z,1013.04
2022-07-31T09:25:16.173Z,1013.06
2022-07-31T09:26:16.179Z,1013.07
2022-07-31T09:27:16.153Z,1013.07
2022-07-31T09:28:16.165Z,1013.07
2022-07-31T09:29:16.124Z,1013.08
2022-07-31T09:30:16.242Z,1013.09
2022-07-31T09:31:16.085Z,1013.05
2022-07-31T09:32:16.074Z,1013.03
2022-07-31T09:33:16.598Z,1013.06
2022-07-31T09:34:16.060Z,1013.08
2022-07-31T09:35:16.049Z,1013.06
2022-07-31T09:36:16.014Z,1013.09
2022-07-31T09:37:16.001Z,1013.09
2022-07-31T09:38:15.986Z,1013.06
2022-07-31T09:39:26.807Z,1013.11
2022-07-31T09:40:15.954Z,1013.06
2022-07-31T09:41:53.512Z,1013.05
2022-07-31T09:42:16.988Z,1013.04
2022-07-31T09:43:15.908Z,1013.02
2022-07-31T09:44:15.904Z,1013.06
2022-07-31T09:45:15.882Z,1013.04
2022-07-31T09:46:15.885Z,1013.10
2022-07-31T09:47:15.851Z,1013.06
2022-07-31T09:48:26.301Z,1013.06
2022-07-31T09:49:15.899Z,1013.10
2022-07-31T09:50:15.807Z,1013.08
2022-07-31T09:51:15.792Z,1013.08
2022-07-31T09:52:15.803Z,1013.09
2022-07-31T09:53:15.763Z,1013.14
2022-07-31T09:54:15.745Z,1013.13
2022-07-31T09:55:17.083Z,1013.15
2022-07-31T09:56:15.714Z,1013.12
2022-07-31T09:57:15.717Z,1013.11
2022-07-31T09:58:15.705Z,1013.09
2022-07-31T09:59:15.672Z,1013.04
2022-07-31T10:00:17.398Z,1013.03
2022-07-31T10:01:15.679Z,1013.01
2022-07-31T10:02:15.643Z,1013.02
2022-07-31T10:03:15.609Z,1013.01
2022-07-31T10:04:15.617Z,1012.98
2022-07-31T10:05:15.586Z,1012.99
2022-07-31T10:06:16.693Z,1012.98
2022-07-31T10:07:24.319Z,1012.97
2022-07-31T10:08:15.539Z,1012.97
2022-07-31T10:09:15.547Z,1012.94
2022-07-31T10:10:15.506Z,1012.92
2022-07-31T10:11:16.605Z,1012.97
2022-07-31T10:12:16.581Z,1012.95
2022-07-31T10:13:15.486Z,1012.95
2022-07-31T10:14:15.441Z,1012.94
2022-07-31T10:15:15.428Z,1012.90
2022-07-31T10:16:15.437Z,1012.91
2022-07-31T10:17:15.406Z,1012.89
2022-07-31T10:18:15.397Z,1012.91
2022-07-31T10:19:15.367Z,1012.91
2022-07-31T10:20:15.376Z,1012.95
2022-07-31T10:21:15.337Z,1012.92
2022-07-31T10:22:15.322Z,1012.92
2022-07-31T10:23:15.307Z,1012.88
2022-07-31T10:24:15.311Z,1012.94
2022-07-31T10:25:15.293Z,1012.90
2022-07-31T10:26:15.263Z,1012.89
2022-07-31T10:27:15.670Z,1012.85
2022-07-31T10:28:15.236Z,1012.81
2022-07-31T10:29:15.213Z,1012.82
2022-07-31T10:30:15.279Z,1012.84
2022-07-31T10:31:15.202Z,1012.88
2022-07-31T10:32:15.173Z,1012.85
2022-07-31T10:33:41.938Z,1012.86
2022-07-31T10:34:15.142Z,1012.78
2022-07-31T10:35:15.137Z,1012.82
2022-07-31T10:36:15.137Z,1012.80
2022-07-31T10:37:15.096Z,1012.77
2022-07-31T10:38:15.084Z,1012.82
2022-07-31T10:39:15.081Z,1012.82
2022-07-31T10:40:15.059Z,1012.76
2022-07-31T10:41:15.059Z,1012.79
2022-07-31T10:42:15.042Z,1012.83
2022-07-31T10:43:15.015Z,1012.84
2022-07-31T10:44:15.000Z,1012.78
2022-07-31T10:45:14.987Z,1012.78
2022-07-31T10:46:14.979Z,1012.79
2022-07-31T10:47:14.983Z,1012.83
2022-07-31T10:48:14.971Z,1012.83
2022-07-31T10:49:14.974Z,1012.80
2022-07-31T10:50:14.912Z,1012.73
2022-07-31T10:51:14.897Z,1012.75
2022-07-31T10:52:14.886Z,1012.81
2022-07-31T10:53:14.893Z,1012.80
2022-07-31T10:54:14.857Z,1012.79
2022-07-31T10:55:14.845Z,1012.79
2022-07-31T10:56:14.832Z,1012.77
2022-07-31T10:57:14.829Z,1012.79
2022-07-31T10:58:14.830Z,1012.74
2022-07-31T10:59:14.797Z,1012.74
2022-07-31T11:00:14.780Z,1012.73
2022-07-31T11:01:17.666Z,1012.67
2022-07-31T11:02:14.797Z,1012.71
2022-07-31T11:03:14.739Z,1012.70
2022-07-31T11:04:14.736Z,1012.68
2022-07-31T11:05:14.711Z,1012.68
2022-07-31T11:06:14.694Z,1012.73
2022-07-31T11:07:14.697Z,1012.68
2022-07-31T11:08:14.692Z,1012.67
2022-07-31T11:09:14.661Z,1012.70
2022-07-31T11:10:14.638Z,1012.66
2022-07-31T11:11:14.625Z,1012.65
2022-07-31T11:12:14.617Z,1012.62
2022-07-31T11:13:14.621Z,1012.58
2022-07-31T11:14:14.593Z,1012.58
2022-07-31T11:15:14.576Z,1012.54
2022-07-31T11:16:14.578Z,1012.55
2022-07-31T11:17:14.546Z,1012.52
2022-07-31T11:18:21.121Z,1012.53
2022-07-31T11:19:14.537Z,1012.58
2022-07-31T11:20:14.514Z,1012.60
2022-07-31T11:21:36.944Z,1012.60
2022-07-31T11:22:32.144Z,1012.61
2022-07-31T11:23:14.463Z,1012.62
2022-07-31T11:24:14.472Z,1012.63
2022-07-31T11:25:14.451Z,1012.60
2022-07-31T11:26:14.422Z,1012.63
2022-07-31T11:27:14.411Z,1012.64
2022-07-31T11:28:14.394Z,1012.62
2022-07-31T11:30:00.869Z,1012.60
2022-07-31T11:30:14.454Z,1012.62
2022-07-31T11:31:14.352Z,1012.64
2022-07-31T11:32:14.340Z,1012.60
2022-07-31T11:33:14.324Z,1012.65
2022-07-31T11:34:14.309Z,1012.60
2022-07-31T11:35:14.318Z,1012.57
2022-07-31T11:36:14.304Z,1012.55
2022-07-31T11:37:14.271Z,1012.54
2022-07-31T11:38:14.259Z,1012.58
2022-07-31T11:39:14.242Z,1012.55
2022-07-31T11:40:14.565Z,1012.55
2022-07-31T11:41:15.093Z,1012.53
2022-07-31T11:42:14.203Z,1012.52
2022-07-31T11:43:29.483Z,1012.52
2022-07-31T11:44:14.178Z,1012.50
2022-07-31T11:45:14.197Z,1012.48
2022-07-31T11:46:14.165Z,1012.48
2022-07-31T11:48:09.379Z,1012.47
2022-07-31T11:48:14.179Z,1012.47
2022-07-31T11:49:14.137Z,1012.43
2022-07-31T11:50:14.103Z,1012.41
2022-07-31T11:51:14.093Z,1012.42
2022-07-31T11:52:30.244Z,1012.40
2022-07-31T11:53:14.065Z,1012.42
2022-07-31T11:54:14.068Z,1012.38
2022-07-31T11:55:14.039Z,1012.42
2022-07-31T11:56:14.025Z,1012.43
2022-07-31T11:57:14.010Z,1012.43
2022-07-31T11:58:14.014Z,1012.43
2022-07-31T11:59:35.997Z,1012.45
2022-07-31T12:00:26.115Z,1012.53
2022-07-31T12:01:13.960Z,1012.56
2022-07-31T12:02:13.945Z,1012.52
2022-07-31T12:03:13.989Z,1012.54
2022-07-31T12:04:13.929Z,1012.41
2022-07-31T12:05:13.931Z,1012.39
2022-07-31T12:06:13.892Z,1012.43
2022-07-31T12:07:13.898Z,1012.41